首页
METAR-TAF:

METAR-TAF

机场 :

Davenport Municipal Airport

達文波特, 艾奥瓦州, 美国

纬度: 41-36-50N, 经度: 090-35-29W, 海拔: 229米

当前天气观测

该预报发布于1小时和9分钟前的19:52 UTC
风速6节,风向西南
温度 4°C
湿度 87%
气压 1012 hPa
能見度: 3.2公里
阴天层高于600英尺
小雨, 轻雾

METAR: KDVN 171952Z AUTO 23006KT 2SM -RA BR OVC006 04/02 A2988 RMK AO2 SLP122 P0003 T00390022

时间: 15:01 (21:01 UTC)


TAF: 丢失

超过4000个机场的气象观测和天气预报(METAR&TAF报告)。

可查询的气象台以黄色和红色小点在地图上表示。

将鼠标移到小点上方,可查看气象台名称。

然后点击查看天气观测和预报。

如需切换地图:点击带黑十字的绿色按钮放大地图;点击带横线的绿色按钮缩小地图;或者点击绿色箭头查看邻近地区的地图。


METAR-TAF: